createdAt,value
2023-04-19T00:01:34.626Z,7.92
2023-04-19T00:04:01.483Z,7.99
2023-04-19T00:06:30.542Z,7.97
2023-04-19T00:08:57.589Z,8.04
2023-04-19T00:11:25.041Z,8.00
2023-04-19T00:13:51.616Z,7.92
2023-04-19T00:16:18.056Z,7.95
2023-04-19T00:18:44.467Z,7.98
2023-04-19T00:21:11.718Z,7.90
2023-04-19T00:23:38.136Z,7.91
2023-04-19T00:26:04.712Z,7.92
2023-04-19T00:28:31.228Z,7.87
2023-04-19T00:30:58.729Z,7.88
2023-04-19T00:33:25.178Z,7.82
2023-04-19T00:35:52.637Z,7.83
2023-04-19T00:38:19.046Z,7.91
2023-04-19T00:40:46.647Z,7.89
2023-04-19T00:43:16.743Z,7.91
2023-04-19T00:45:43.169Z,7.90
2023-04-19T00:48:10.823Z,7.88
2023-04-19T00:50:37.317Z,7.87
2023-04-19T00:53:03.783Z,7.94
2023-04-19T00:55:30.306Z,7.98
2023-04-19T00:57:59.890Z,7.97
2023-04-19T01:00:26.366Z,8.07
2023-04-19T01:02:53.756Z,8.10
2023-04-19T01:05:20.366Z,8.10
2023-04-19T01:07:46.758Z,8.17
2023-04-19T01:10:13.168Z,8.23
2023-04-19T01:12:39.629Z,8.26
2023-04-19T01:15:06.390Z,8.17
2023-04-19T01:17:34.992Z,8.21
2023-04-19T01:20:02.207Z,8.27
2023-04-19T01:22:30.089Z,8.20
2023-04-19T01:24:57.342Z,8.04
2023-04-19T01:27:24.070Z,8.17
2023-04-19T01:29:56.591Z,8.25
2023-04-19T01:32:23.036Z,8.30
2023-04-19T01:34:57.186Z,8.31
2023-04-19T01:37:23.579Z,8.38
2023-04-19T01:39:49.993Z,8.39
2023-04-19T01:42:16.416Z,8.33
2023-04-19T01:44:42.843Z,8.45
2023-04-19T01:47:10.520Z,8.36
2023-04-19T01:49:37.112Z,8.38
2023-04-19T01:52:03.612Z,8.47
2023-04-19T01:54:30.050Z,8.49
2023-04-19T01:56:57.117Z,8.46
2023-04-19T01:59:23.534Z,8.40
2023-04-19T02:01:50.315Z,8.42
2023-04-19T02:04:18.758Z,8.37
2023-04-19T02:06:45.329Z,8.34
2023-04-19T02:09:11.806Z,8.35
2023-04-19T02:11:46.537Z,8.26
2023-04-19T02:14:13.099Z,8.35
2023-04-19T02:16:39.660Z,8.42
2023-04-19T02:19:06.066Z,8.39
2023-04-19T02:21:32.498Z,8.37
2023-04-19T02:23:58.863Z,8.25
2023-04-19T02:26:25.331Z,8.32
2023-04-19T02:28:52.652Z,8.34
2023-04-19T02:31:19.275Z,8.28
2023-04-19T02:33:46.894Z,8.24
2023-04-19T02:36:13.385Z,8.25
2023-04-19T02:38:41.840Z,8.36
2023-04-19T02:41:08.335Z,8.30
2023-04-19T02:43:34.740Z,8.43
2023-04-19T02:46:01.512Z,8.28
2023-04-19T02:48:29.142Z,8.32
2023-04-19T02:50:55.557Z,8.41
2023-04-19T02:53:21.950Z,8.43
2023-04-19T02:55:48.370Z,8.34
2023-04-19T02:58:14.888Z,8.31
2023-04-19T03:00:43.287Z,8.43
2023-04-19T03:03:11.307Z,8.33
2023-04-19T03:05:37.734Z,8.35
2023-04-19T03:08:04.169Z,8.40
2023-04-19T03:10:35.543Z,8.45
2023-04-19T03:13:01.954Z,8.41
2023-04-19T03:15:28.894Z,8.47
2023-04-19T03:17:55.421Z,8.49
2023-04-19T03:20:22.817Z,8.45
2023-04-19T03:22:55.310Z,8.56
2023-04-19T03:25:21.850Z,8.48
2023-04-19T03:27:48.437Z,8.56
2023-04-19T03:30:15.974Z,8.60
2023-04-19T03:32:42.443Z,8.60
2023-04-19T03:35:11.115Z,8.57
2023-04-19T03:37:37.560Z,8.57
2023-04-19T03:40:09.113Z,8.45
2023-04-19T03:42:35.766Z,8.59
2023-04-19T03:45:02.271Z,8.58
2023-04-19T03:47:28.683Z,8.59
2023-04-19T03:49:56.248Z,8.41
2023-04-19T03:52:22.645Z,8.27
2023-04-19T03:54:49.015Z,8.40
2023-04-19T03:57:17.760Z,8.57
2023-04-19T03:59:44.194Z,8.64
2023-04-19T04:02:10.639Z,8.58
2023-04-19T04:04:37.282Z,8.60
2023-04-19T04:07:03.782Z,8.60
2023-04-19T04:09:30.255Z,8.46
2023-04-19T04:11:57.743Z,8.53
2023-04-19T04:14:24.231Z,8.58
2023-04-19T04:16:50.750Z,8.60
2023-04-19T04:19:18.013Z,8.49
2023-04-19T04:21:44.383Z,8.52
2023-04-19T04:24:10.826Z,8.47
2023-04-19T04:26:39.533Z,8.42
2023-04-19T04:29:06.247Z,8.55
2023-04-19T04:31:32.676Z,8.49
2023-04-19T04:33:59.129Z,8.48
2023-04-19T04:36:26.257Z,8.36
2023-04-19T04:38:52.672Z,8.39
2023-04-19T04:41:22.497Z,8.48
2023-04-19T04:44:04.599Z,8.48
2023-04-19T04:46:35.915Z,8.54
2023-04-19T04:49:02.370Z,8.53
2023-04-19T04:51:28.936Z,8.60
2023-04-19T04:53:55.498Z,8.62
2023-04-19T04:56:21.999Z,8.64
2023-04-19T04:58:48.431Z,8.66
2023-04-19T05:01:15.310Z,8.62
2023-04-19T05:03:41.814Z,8.65
2023-04-19T05:06:08.688Z,8.67
2023-04-19T05:08:35.039Z,8.68
2023-04-19T05:11:01.535Z,8.64
2023-04-19T05:13:27.949Z,8.72
2023-04-19T05:15:54.386Z,8.76
2023-04-19T05:18:21.854Z,8.80
2023-04-19T05:20:48.393Z,8.72
2023-04-19T05:23:14.843Z,8.76
2023-04-19T05:25:41.362Z,8.76
2023-04-19T05:28:07.813Z,8.76
2023-04-19T05:30:35.321Z,8.71
2023-04-19T05:33:01.878Z,8.75
2023-04-19T05:35:32.451Z,8.76
2023-04-19T05:37:58.917Z,8.69
2023-04-19T05:40:25.313Z,8.75
2023-04-19T05:42:51.768Z,8.78
2023-04-19T05:45:20.918Z,8.76
2023-04-19T05:47:47.649Z,8.86
2023-04-19T05:50:17.952Z,8.77
2023-04-19T05:52:44.504Z,8.74
2023-04-19T05:55:10.921Z,8.74
2023-04-19T05:57:37.332Z,8.79
2023-04-19T06:00:05.033Z,8.78
2023-04-19T06:02:31.526Z,8.82
2023-04-19T06:05:02.652Z,8.91
2023-04-19T06:07:34.163Z,8.92
2023-04-19T06:10:04.408Z,8.96
2023-04-19T06:12:30.898Z,8.74
2023-04-19T06:15:01.420Z,8.89
2023-04-19T06:17:27.840Z,8.88
2023-04-19T06:20:07.460Z,8.87
2023-04-19T06:22:33.930Z,8.87
2023-04-19T06:25:01.081Z,8.85
2023-04-19T06:27:27.501Z,9.00
2023-04-19T06:29:53.898Z,9.05
2023-04-19T06:32:27.405Z,9.10
2023-04-19T06:34:53.828Z,9.03
2023-04-19T06:37:20.367Z,9.02
2023-04-19T06:39:46.773Z,9.08
2023-04-19T06:42:13.161Z,9.08
2023-04-19T06:44:39.536Z,9.07
2023-04-19T06:47:06.018Z,9.09
2023-04-19T06:49:32.395Z,9.15
2023-04-19T06:51:59.641Z,9.21
2023-04-19T06:54:28.080Z,9.10
2023-04-19T06:56:54.494Z,9.18
2023-04-19T06:59:21.125Z,9.20
2023-04-19T07:01:48.287Z,9.25
2023-04-19T07:04:16.325Z,9.23
2023-04-19T07:06:43.013Z,9.25
2023-04-19T07:09:09.476Z,9.31
2023-04-19T07:11:36.966Z,9.35
2023-04-19T07:14:03.392Z,9.44
2023-04-19T07:16:30.086Z,9.41
2023-04-19T07:18:57.222Z,9.49
2023-04-19T07:21:26.620Z,9.52
2023-04-19T07:23:53.041Z,9.50
2023-04-19T07:26:20.479Z,9.40
2023-04-19T07:28:46.849Z,9.44
2023-04-19T07:31:16.981Z,9.41
2023-04-19T07:33:44.000Z,9.39
2023-04-19T07:36:10.523Z,9.42
2023-04-19T07:38:39.714Z,9.21
2023-04-19T07:41:06.273Z,9.24
2023-04-19T07:43:32.778Z,9.30
2023-04-19T07:45:59.283Z,9.13
2023-04-19T07:48:25.683Z,9.24
2023-04-19T07:50:52.254Z,9.26
2023-04-19T07:53:18.806Z,9.28
2023-04-19T07:55:45.181Z,9.16
2023-04-19T07:58:11.831Z,9.10
2023-04-19T08:00:38.275Z,9.11
2023-04-19T08:03:04.811Z,9.03
2023-04-19T08:05:31.914Z,8.97
2023-04-19T08:07:58.607Z,8.95
2023-04-19T08:10:25.884Z,8.93
2023-04-19T08:13:05.065Z,8.76
2023-04-19T08:18:05.092Z,8.69
2023-04-19T08:20:32.511Z,8.68
2023-04-19T08:23:02.569Z,8.71
2023-04-19T08:25:33.903Z,8.72
2023-04-19T08:28:00.359Z,8.76
2023-04-19T08:30:26.802Z,8.62
2023-04-19T08:32:55.425Z,8.59
2023-04-19T08:35:23.372Z,8.59
2023-04-19T08:37:49.897Z,8.37
2023-04-19T08:40:17.044Z,8.43
2023-04-19T08:42:43.683Z,8.32
2023-04-19T08:45:26.929Z,8.24
2023-04-19T08:48:00.704Z,8.22
2023-04-19T08:50:33.303Z,8.15
2023-04-19T08:55:32.309Z,8.03
2023-04-19T08:57:58.827Z,7.99
2023-04-19T09:00:25.442Z,7.91
2023-04-19T09:02:53.454Z,8.05
2023-04-19T09:05:20.932Z,8.03
2023-04-19T09:07:48.437Z,8.05
2023-04-19T09:10:16.797Z,8.00
2023-04-19T09:12:43.848Z,7.97
2023-04-19T09:15:11.508Z,7.93
2023-04-19T09:17:39.306Z,7.99
2023-04-19T09:20:06.772Z,8.05
2023-04-19T09:22:33.568Z,7.98
2023-04-19T09:27:34.248Z,8.01
2023-04-19T09:30:02.256Z,8.08
2023-04-19T09:32:29.190Z,8.27
2023-04-19T09:34:56.716Z,8.01
2023-04-19T09:39:54.068Z,8.23
2023-04-19T09:42:42.126Z,8.15
2023-04-19T09:47:37.977Z,8.57
2023-04-19T09:50:21.916Z,8.63
2023-04-19T09:52:51.916Z,9.00
2023-04-19T09:57:48.716Z,9.31
2023-04-19T10:00:15.660Z,9.59
2023-04-19T10:02:42.291Z,9.92
2023-04-19T10:05:20.431Z,10.22
2023-04-19T10:07:57.428Z,10.49
2023-04-19T10:10:40.620Z,10.70
2023-04-19T10:13:18.850Z,10.85
2023-04-19T10:16:01.779Z,11.22
2023-04-19T10:18:34.883Z,11.23
2023-04-19T10:21:04.208Z,10.99
2023-04-19T10:23:31.634Z,11.14
2023-04-19T10:25:58.806Z,11.61
2023-04-19T10:28:27.920Z,11.41
2023-04-19T10:31:01.061Z,11.10
2023-04-19T10:33:28.651Z,11.93
2023-04-19T10:35:59.630Z,12.04
2023-04-19T10:38:36.800Z,11.37
2023-04-19T10:41:13.645Z,11.62
2023-04-19T10:43:46.233Z,11.20
2023-04-19T10:46:12.767Z,11.28
2023-04-19T10:48:40.770Z,11.58
2023-04-19T10:51:19.083Z,11.44
2023-04-19T10:53:46.645Z,11.71
2023-04-19T10:56:13.323Z,11.88
2023-04-19T10:58:58.399Z,11.74
2023-04-19T11:01:39.654Z,11.62
2023-04-19T11:04:16.863Z,11.29
2023-04-19T11:06:55.410Z,11.23
2023-04-19T11:09:34.353Z,11.42
2023-04-19T11:12:05.450Z,11.48
2023-04-19T11:14:33.148Z,12.07
2023-04-19T11:17:00.169Z,12.37
2023-04-19T11:19:27.786Z,12.76
2023-04-19T11:21:57.673Z,13.45
2023-04-19T11:24:26.125Z,13.64
2023-04-19T11:26:55.312Z,13.69
2023-04-19T11:29:32.009Z,13.18
2023-04-19T11:32:00.111Z,13.14
2023-04-19T11:34:37.119Z,13.13
2023-04-19T11:37:03.549Z,12.67
2023-04-19T11:39:32.072Z,13.03
2023-04-19T11:41:59.530Z,13.15
2023-04-19T11:44:25.974Z,13.24
2023-04-19T11:47:02.812Z,13.18
2023-04-19T11:49:35.596Z,12.67
2023-04-19T11:52:06.227Z,12.73
2023-04-19T11:54:33.212Z,12.49
2023-04-19T11:57:03.539Z,12.81
2023-04-19T11:59:30.562Z,13.00
2023-04-19T12:02:10.508Z,12.92
2023-04-19T12:04:37.263Z,12.88
2023-04-19T12:07:04.855Z,12.85
2023-04-19T12:09:33.818Z,12.93
2023-04-19T12:12:00.554Z,13.02
2023-04-19T12:14:27.138Z,13.38
2023-04-19T12:17:22.801Z,13.49
2023-04-19T12:19:49.331Z,13.64
2023-04-19T12:22:19.591Z,13.89
2023-04-19T12:24:46.411Z,13.63
2023-04-19T12:27:17.510Z,13.72
2023-04-19T12:29:44.004Z,13.95
2023-04-19T12:32:11.346Z,13.74
2023-04-19T12:34:37.835Z,13.63
2023-04-19T12:37:04.501Z,13.90
2023-04-19T12:39:30.985Z,14.00
2023-04-19T12:41:57.587Z,13.49
2023-04-19T12:44:24.197Z,13.36
2023-04-19T12:46:50.667Z,13.38
2023-04-19T12:49:20.295Z,13.53
2023-04-19T12:51:47.661Z,13.90
2023-04-19T12:54:14.759Z,13.87
2023-04-19T12:56:41.532Z,13.91
2023-04-19T12:59:07.920Z,13.48
2023-04-19T13:01:34.360Z,13.60
2023-04-19T13:04:01.181Z,13.65
2023-04-19T13:06:33.131Z,13.97
2023-04-19T13:09:01.197Z,13.68
2023-04-19T13:11:28.252Z,13.78
2023-04-19T13:13:54.766Z,13.50
2023-04-19T13:16:21.428Z,13.15
2023-04-19T13:18:48.283Z,13.43
2023-04-19T13:21:14.817Z,12.78
2023-04-19T13:23:42.681Z,12.78
2023-04-19T13:26:09.079Z,13.00
2023-04-19T13:28:40.612Z,13.35
2023-04-19T13:31:07.110Z,13.48
2023-04-19T13:33:33.574Z,13.15
2023-04-19T13:36:02.145Z,13.02
2023-04-19T13:38:36.538Z,13.22
2023-04-19T13:41:03.634Z,13.25
2023-04-19T13:43:30.105Z,13.39
2023-04-19T13:45:56.579Z,13.44
2023-04-19T13:48:23.067Z,13.40
2023-04-19T13:50:52.447Z,13.43
2023-04-19T13:53:18.868Z,13.43
2023-04-19T13:55:45.261Z,13.43
2023-04-19T13:58:11.868Z,13.47
2023-04-19T14:00:38.363Z,13.22
2023-04-19T14:03:07.981Z,13.26
2023-04-19T14:05:34.763Z,13.34
2023-04-19T14:08:01.360Z,13.54
2023-04-19T14:10:28.027Z,13.49
2023-04-19T14:12:55.253Z,13.73
2023-04-19T14:15:26.840Z,13.84
2023-04-19T14:17:53.275Z,13.20
2023-04-19T14:20:21.763Z,13.21
2023-04-19T14:22:50.193Z,13.37
2023-04-19T14:25:17.942Z,13.34
2023-04-19T14:27:45.398Z,13.48
2023-04-19T14:30:21.094Z,13.49
2023-04-19T14:32:49.660Z,13.12
2023-04-19T14:35:23.381Z,13.31
2023-04-19T14:37:53.029Z,12.83
2023-04-19T14:40:21.071Z,13.02
2023-04-19T14:42:48.074Z,12.73
2023-04-19T14:45:14.538Z,12.67
2023-04-19T14:47:41.220Z,12.59
2023-04-19T14:50:07.749Z,12.62
2023-04-19T14:52:35.363Z,11.97
2023-04-19T14:55:02.277Z,12.00
2023-04-19T14:57:28.677Z,11.86
2023-04-19T14:59:58.102Z,12.13
2023-04-19T15:02:25.444Z,12.39
2023-04-19T15:04:52.589Z,11.94
2023-04-19T15:07:20.459Z,12.34
2023-04-19T15:09:46.860Z,12.64
2023-04-19T15:12:13.327Z,12.68
2023-04-19T15:14:39.797Z,12.36
2023-04-19T15:17:06.349Z,11.84
2023-04-19T15:19:32.889Z,11.74
2023-04-19T15:22:00.623Z,11.53
2023-04-19T15:24:27.159Z,11.55
2023-04-19T15:26:53.610Z,11.38
2023-04-19T15:29:20.003Z,11.53
2023-04-19T15:31:46.681Z,11.54
2023-04-19T15:34:13.218Z,11.65
2023-04-19T15:36:40.852Z,11.93
2023-04-19T15:39:07.636Z,12.05
2023-04-19T15:41:35.144Z,12.30
2023-04-19T15:44:01.594Z,12.45
2023-04-19T15:46:33.892Z,12.45
2023-04-19T15:49:00.432Z,12.40
2023-04-19T15:51:27.504Z,12.00
2023-04-19T15:53:53.888Z,12.11
2023-04-19T15:56:20.339Z,12.13
2023-04-19T15:58:49.794Z,12.13
2023-04-19T16:01:18.836Z,12.00
2023-04-19T16:03:45.976Z,12.03
2023-04-19T16:06:12.623Z,12.06
2023-04-19T16:08:39.081Z,12.19
2023-04-19T16:11:06.043Z,12.41
2023-04-19T16:13:32.506Z,12.52
2023-04-19T16:15:58.927Z,12.34
2023-04-19T16:18:28.532Z,12.17
2023-04-19T16:20:55.865Z,12.13
2023-04-19T16:23:24.347Z,11.75
2023-04-19T16:25:50.831Z,11.46
2023-04-19T16:28:19.784Z,11.48
2023-04-19T16:30:47.160Z,11.29
2023-04-19T16:33:14.344Z,11.19
2023-04-19T16:35:40.906Z,11.24
2023-04-19T16:38:07.376Z,11.25
2023-04-19T16:40:33.746Z,11.16
2023-04-19T16:43:00.136Z,11.15
2023-04-19T16:45:26.566Z,10.95
2023-04-19T16:47:53.808Z,10.99
2023-04-19T16:50:22.319Z,10.83
2023-04-19T16:52:48.751Z,10.70
2023-04-19T16:55:15.242Z,10.65
2023-04-19T16:57:41.733Z,10.46
2023-04-19T17:00:09.661Z,10.38
2023-04-19T17:02:36.337Z,10.14
2023-04-19T17:05:03.101Z,10.09
2023-04-19T17:07:31.638Z,10.19
2023-04-19T17:09:58.957Z,10.11
2023-04-19T17:12:25.415Z,10.15
2023-04-19T17:14:52.845Z,10.08
2023-04-19T17:17:20.103Z,9.88
2023-04-19T17:19:49.530Z,9.94
2023-04-19T17:22:18.195Z,9.85
2023-04-19T17:24:44.695Z,9.84
2023-04-19T17:27:11.693Z,9.90
2023-04-19T17:29:38.189Z,9.71
2023-04-19T17:32:12.844Z,9.71
2023-04-19T17:34:39.294Z,9.57
2023-04-19T17:37:05.829Z,9.42
2023-04-19T17:39:33.291Z,9.56
2023-04-19T17:41:59.710Z,9.23
2023-04-19T17:44:26.927Z,9.21
2023-04-19T17:46:53.466Z,9.12
2023-04-19T17:49:21.200Z,8.90
2023-04-19T17:51:47.942Z,8.55
2023-04-19T17:54:15.906Z,8.52
2023-04-19T17:56:42.484Z,8.43
2023-04-19T17:59:08.931Z,7.99
2023-04-19T18:01:35.676Z,7.91
2023-04-19T18:04:03.456Z,7.93
2023-04-19T18:06:30.388Z,8.09
2023-04-19T18:08:58.416Z,8.18
2023-04-19T18:11:26.396Z,8.14
2023-04-19T18:13:54.647Z,8.12
2023-04-19T18:16:26.227Z,7.92
2023-04-19T18:18:54.841Z,7.85
2023-04-19T18:21:27.166Z,7.83
2023-04-19T18:23:54.804Z,7.73
2023-04-19T18:26:24.164Z,7.71
2023-04-19T18:28:51.619Z,7.64
2023-04-19T18:31:18.031Z,7.60
2023-04-19T18:33:44.481Z,7.56
2023-04-19T18:36:11.894Z,7.57
2023-04-19T18:38:38.465Z,7.47
2023-04-19T18:41:04.937Z,7.49
2023-04-19T18:43:31.640Z,7.58
2023-04-19T18:46:04.266Z,7.40
2023-04-19T18:48:31.791Z,7.13
2023-04-19T18:50:59.476Z,7.07
2023-04-19T18:53:31.630Z,6.99
2023-04-19T18:56:00.643Z,6.69
2023-04-19T18:58:27.591Z,6.57
2023-04-19T19:01:02.062Z,6.67
2023-04-19T19:03:57.970Z,6.64
2023-04-19T19:06:17.188Z,6.56
2023-04-19T19:08:46.180Z,6.79
2023-04-19T19:11:44.143Z,6.61
2023-04-19T19:14:04.380Z,6.58
2023-04-19T19:16:50.730Z,6.65
2023-04-19T19:19:20.681Z,6.64
2023-04-19T19:21:47.478Z,6.60
2023-04-19T19:24:14.539Z,6.60
2023-04-19T19:26:41.041Z,6.53
2023-04-19T19:29:09.265Z,6.41
2023-04-19T19:31:36.084Z,6.37
2023-04-19T19:34:23.340Z,6.26
2023-04-19T19:36:51.573Z,6.34
2023-04-19T19:39:19.210Z,6.14
2023-04-19T19:44:15.246Z,6.20
2023-04-19T19:46:41.883Z,6.10
2023-04-19T19:49:12.669Z,6.01
2023-04-19T19:51:56.658Z,6.06
2023-04-19T19:54:24.924Z,5.97
2023-04-19T19:59:21.226Z,5.90
2023-04-19T20:01:54.226Z,5.86
2023-04-19T20:04:22.715Z,5.74
2023-04-19T20:09:23.584Z,5.60
2023-04-19T20:11:58.016Z,5.55
2023-04-19T20:14:25.680Z,5.47
2023-04-19T20:16:52.192Z,5.45
2023-04-19T20:19:19.450Z,5.49
2023-04-19T20:21:47.235Z,5.40
2023-04-19T20:24:13.947Z,5.35
2023-04-19T20:26:40.630Z,5.37
2023-04-19T20:29:07.855Z,5.28
2023-04-19T20:31:35.364Z,5.27
2023-04-19T20:34:01.774Z,5.14
2023-04-19T20:36:31.578Z,5.09
2023-04-19T20:38:58.853Z,5.10
2023-04-19T20:41:27.178Z,4.92
2023-04-19T20:43:56.974Z,5.16
2023-04-19T20:46:23.626Z,5.10
2023-04-19T20:48:50.093Z,5.17
2023-04-19T20:51:17.634Z,5.28
2023-04-19T20:53:44.860Z,5.14
2023-04-19T20:56:11.307Z,5.03
2023-04-19T20:58:39.257Z,5.17
2023-04-19T21:01:05.773Z,5.15
2023-04-19T21:03:36.534Z,5.02
2023-04-19T21:06:03.139Z,4.97
2023-04-19T21:08:29.607Z,4.87
2023-04-19T21:10:56.253Z,4.89
2023-04-19T21:13:22.675Z,4.84
2023-04-19T21:15:50.165Z,4.79
2023-04-19T21:18:17.508Z,4.59
2023-04-19T21:20:43.985Z,4.54
2023-04-19T21:23:11.052Z,4.51
2023-04-19T21:25:37.452Z,4.35
2023-04-19T21:28:09.761Z,4.43
2023-04-19T21:30:40.729Z,4.39
2023-04-19T21:33:12.241Z,4.25
2023-04-19T21:35:38.681Z,4.07
2023-04-19T21:38:07.428Z,4.09
2023-04-19T21:40:33.885Z,4.30
2023-04-19T21:43:02.325Z,4.42
2023-04-19T21:45:28.718Z,4.45
2023-04-19T21:47:56.342Z,4.37
2023-04-19T21:50:22.824Z,4.30
2023-04-19T21:52:56.178Z,4.26
2023-04-19T21:55:22.664Z,4.46
2023-04-19T21:57:50.062Z,4.32
2023-04-19T22:00:16.889Z,4.19
2023-04-19T22:02:43.399Z,4.03
2023-04-19T22:05:10.013Z,3.91
2023-04-19T22:07:38.523Z,4.12
2023-04-19T22:10:06.263Z,4.27
2023-04-19T22:12:34.121Z,4.34
2023-04-19T22:15:01.376Z,4.25
2023-04-19T22:17:29.375Z,4.15
2023-04-19T22:20:02.312Z,3.93
2023-04-19T22:22:28.698Z,3.80
2023-04-19T22:24:58.435Z,3.77
2023-04-19T22:27:25.525Z,3.79
2023-04-19T22:29:51.939Z,3.71
2023-04-19T22:32:18.499Z,3.85
2023-04-19T22:34:45.052Z,3.90
2023-04-19T22:37:11.471Z,3.88
2023-04-19T22:39:37.923Z,3.80
2023-04-19T22:42:04.482Z,3.76
2023-04-19T22:44:30.940Z,3.65
2023-04-19T22:46:59.321Z,3.67
2023-04-19T22:49:25.843Z,3.67
2023-04-19T22:51:54.423Z,3.84
2023-04-19T22:54:20.850Z,3.83
2023-04-19T22:56:51.046Z,3.77
2023-04-19T22:59:17.656Z,3.68
2023-04-19T23:01:45.708Z,3.65
2023-04-19T23:04:14.169Z,3.54
2023-04-19T23:06:42.211Z,3.63
2023-04-19T23:09:11.107Z,3.71
2023-04-19T23:11:37.688Z,3.76
2023-04-19T23:14:05.093Z,3.76
2023-04-19T23:16:33.412Z,3.61
2023-04-19T23:19:00.701Z,3.59
2023-04-19T23:21:29.918Z,3.46
2023-04-19T23:23:56.305Z,3.27
2023-04-19T23:26:22.944Z,3.23
2023-04-19T23:28:49.333Z,3.07
2023-04-19T23:31:15.804Z,3.09
2023-04-19T23:33:42.250Z,3.05
2023-04-19T23:36:09.243Z,3.04
2023-04-19T23:38:35.603Z,2.97
2023-04-19T23:41:02.036Z,2.94
2023-04-19T23:43:28.437Z,2.95
2023-04-19T23:45:54.828Z,2.85
2023-04-19T23:48:21.219Z,2.71
2023-04-19T23:50:47.587Z,2.78
2023-04-19T23:53:13.965Z,2.57
2023-04-19T23:55:40.411Z,2.71
2023-04-19T23:58:07.072Z,2.82
